Time;durP1;ratioP1;P1;durP2;ratioP2;P2;SDS_P1;SDS_P2;PMS_P1;PMS_P2;Temp;Humidity;BMP_temperature;BMP_pressure;BME280_temperature;BME280_humidity;BME280_pressure;Samples;Min_cycle;Max_cycle;Signal;HPM_P1;HPM_P2
2023/03/02 00:01:32;;;;;;;;;;;14.40;78.40;;;;;;5074582;28;19917;-49
2023/03/02 00:04:00;;;;;;;;;;;14.30;78.40;;;;;;5074781;28;19916;-50
2023/03/02 00:06:27;;;;;;;;;;;14.40;78.40;;;;;;5074751;28;19915;-49
2023/03/02 00:08:52;;;;;;;;;;;14.40;78.50;;;;;;5056789;28;19916;-50
2023/03/02 00:11:18;;;;;;;;;;;14.40;78.50;;;;;;5074897;28;19969;-48
2023/03/02 00:13:43;;;;;;;;;;;14.40;78.50;;;;;;5074516;28;20359;-47
2023/03/02 00:16:09;;;;;;;;;;;14.40;78.50;;;;;;5074271;28;19915;-46
2023/03/02 00:18:34;;;;;;;;;;;14.40;78.50;;;;;;5074559;28;19915;-48
2023/03/02 00:21:00;;;;;;;;;;;14.40;78.40;;;;;;5074171;28;20046;-49
2023/03/02 00:23:26;;;;;;;;;;;14.40;78.50;;;;;;5074466;28;20275;-46
2023/03/02 00:25:51;;;;;;;;;;;14.50;78.60;;;;;;5074534;28;19912;-47
2023/03/02 00:28:17;;;;;;;;;;;14.40;78.50;;;;;;5074118;28;19912;-48
2023/03/02 00:30:42;;;;;;;;;;;14.50;78.60;;;;;;5056383;28;19909;-49
2023/03/02 00:33:07;;;;;;;;;;;14.40;78.50;;;;;;5074234;28;19909;-49
2023/03/02 00:35:40;;;;;;;;;;;14.40;78.50;;;;;;5074635;28;19909;-46
2023/03/02 00:38:06;;;;;;;;;;;14.40;78.50;;;;;;5073970;28;19915;-48
2023/03/02 00:40:32;;;;;;;;;;;14.40;78.60;;;;;;5074440;28;20341;-49
2023/03/02 00:42:57;;;;;;;;;;;14.40;78.60;;;;;;5074159;28;19921;-46
2023/03/02 00:45:23;;;;;;;;;;;14.50;78.80;;;;;;5074007;28;19908;-49
2023/03/02 00:47:48;;;;;;;;;;;14.40;78.70;;;;;;5056261;28;19909;-51
2023/03/02 00:50:13;;;;;;;;;;;14.40;79.00;;;;;;5074441;28;19916;-47
2023/03/02 00:52:39;;;;;;;;;;;14.40;78.80;;;;;;5073834;28;19908;-49
2023/03/02 00:55:05;;;;;;;;;;;14.40;78.80;;;;;;5074151;28;20332;-49
2023/03/02 00:57:30;;;;;;;;;;;14.50;78.80;;;;;;5074144;28;19908;-48
2023/03/02 00:59:56;;;;;;;;;;;14.40;78.90;;;;;;5074120;28;20356;-51
2023/03/02 01:02:21;;;;;;;;;;;14.40;78.90;;;;;;5073645;28;19916;-49
2023/03/02 01:04:47;;;;;;;;;;;14.40;78.80;;;;;;5073689;28;19919;-50
2023/03/02 01:07:14;;;;;;;;;;;14.50;78.90;;;;;;5074038;28;19915;-47
2023/03/02 01:09:40;;;;;;;;;;;14.50;78.90;;;;;;5075953;28;20285;-46
2023/03/02 01:12:08;;;;;;;;;;;14.50;78.90;;;;;;5077820;28;19938;-47
2023/03/02 01:14:34;;;;;;;;;;;14.50;78.80;;;;;;5078127;28;20006;-53
2023/03/02 01:17:00;;;;;;;;;;;14.50;78.80;;;;;;5078070;28;19999;-51
2023/03/02 01:19:25;;;;;;;;;;;14.50;78.80;;;;;;5078061;28;20338;-46
2023/03/02 01:21:50;;;;;;;;;;;14.50;78.80;;;;;;5077553;28;19969;-51
2023/03/02 01:24:16;;;;;;;;;;;14.50;78.80;;;;;;5077891;28;19923;-50
2023/03/02 01:26:41;;;;;;;;;;;14.50;78.80;;;;;;5077563;28;19930;-47
2023/03/02 01:29:07;;;;;;;;;;;14.50;78.90;;;;;;5059489;28;20382;-49
2023/03/02 01:31:32;;;;;;;;;;;14.50;78.90;;;;;;5077743;28;19962;-49
2023/03/02 01:33:58;;;;;;;;;;;14.50;79.00;;;;;;5077479;28;19909;-48
2023/03/02 01:36:23;;;;;;;;;;;14.50;79.10;;;;;;5077307;28;19916;-48
2023/03/02 01:38:49;;;;;;;;;;;14.50;79.10;;;;;;5077349;28;19909;-46
2023/03/02 01:41:15;;;;;;;;;;;14.50;79.10;;;;;;5059683;28;19916;-48
2023/03/02 01:43:40;;;;;;;;;;;14.50;79.20;;;;;;5077486;28;19908;-48
2023/03/02 01:46:06;;;;;;;;;;;14.40;79.20;;;;;;5077439;28;19915;-49
2023/03/02 01:48:41;;;;;;;;;;;14.50;79.40;;;;;;5059426;28;20275;-48
2023/03/02 01:51:07;;;;;;;;;;;14.50;79.40;;;;;;5077166;28;19909;-49
2023/03/02 01:53:34;;;;;;;;;;;14.50;79.40;;;;;;5076985;28;19909;-46
2023/03/02 01:56:00;;;;;;;;;;;14.50;79.40;;;;;;5076968;28;20256;-47
2023/03/02 01:58:27;;;;;;;;;;;14.50;79.30;;;;;;5059288;28;20283;-49
2023/03/02 02:00:53;;;;;;;;;;;14.60;79.40;;;;;;5076778;28;20014;-48
2023/03/02 02:03:20;;;;;;;;;;;14.60;79.20;;;;;;5077468;28;20012;-47
2023/03/02 02:05:50;;;;;;;;;;;14.50;79.20;;;;;;5077084;28;19908;-47
2023/03/02 02:08:15;;;;;;;;;;;14.50;79.20;;;;;;5077045;28;19908;-48
2023/03/02 02:10:40;;;;;;;;;;;14.60;79.20;;;;;;5076678;28;20000;-50
2023/03/02 02:13:09;;;;;;;;;;;14.50;79.20;;;;;;5076673;28;19962;-48
2023/03/02 02:15:35;;;;;;;;;;;14.50;79.30;;;;;;5076653;28;19909;-47
2023/03/02 02:18:01;;;;;;;;;;;14.50;79.30;;;;;;5076876;28;20348;-51
2023/03/02 02:20:32;;;;;;;;;;;14.50;79.30;;;;;;5075844;28;19913;-50
2023/03/02 02:23:17;;;;;;;;;;;14.50;79.40;;;;;;5076722;28;19956;-49
2023/03/02 02:25:48;;;;;;;;;;;14.50;79.40;;;;;;5076712;28;19909;-50
2023/03/02 02:28:23;;;;;;;;;;;14.50;79.40;;;;;;5077049;28;19909;-52
2023/03/02 02:30:51;;;;;;;;;;;14.50;79.50;;;;;;5076722;28;19954;-50
2023/03/02 02:33:19;;;;;;;;;;;14.50;79.50;;;;;;5076365;28;19999;-50
2023/03/02 02:35:45;;;;;;;;;;;14.50;79.60;;;;;;5076551;28;19913;-48
2023/03/02 02:38:12;;;;;;;;;;;14.50;79.60;;;;;;5058643;28;19908;-50
2023/03/02 02:40:44;;;;;;;;;;;14.50;79.60;;;;;;5075992;28;19947;-49
2023/03/02 02:43:14;;;;;;;;;;;14.50;79.60;;;;;;5076465;28;19921;-50
2023/03/02 02:45:39;;;;;;;;;;;14.50;79.60;;;;;;5058405;28;19908;-51
2023/03/02 02:48:07;;;;;;;;;;;14.50;79.60;;;;;;5058337;28;20017;-48
2023/03/02 02:50:34;;;;;;;;;;;14.50;79.50;;;;;;5076011;28;19909;-50
2023/03/02 02:53:02;;;;;;;;;;;14.50;79.50;;;;;;5058226;28;19909;-52
2023/03/02 02:55:27;;;;;;;;;;;14.60;79.40;;;;;;5075990;28;19918;-47
2023/03/02 02:57:54;;;;;;;;;;;14.60;79.40;;;;;;5076165;28;20007;-49
2023/03/02 03:00:20;;;;;;;;;;;14.60;79.30;;;;;;5076117;28;19992;-47
2023/03/02 03:02:48;;;;;;;;;;;14.60;79.20;;;;;;5075971;28;19917;-50
2023/03/02 03:05:14;;;;;;;;;;;14.60;79.30;;;;;;5076374;28;20329;-52
2023/03/02 03:07:39;;;;;;;;;;;14.60;79.30;;;;;;5075955;28;19967;-50
2023/03/02 03:10:21;;;;;;;;;;;14.60;79.40;;;;;;5075904;28;19970;-46
2023/03/02 03:12:47;;;;;;;;;;;14.60;79.40;;;;;;5075865;28;19974;-48
2023/03/02 03:15:13;;;;;;;;;;;14.60;79.50;;;;;;5075811;28;20356;-48
2023/03/02 03:17:39;;;;;;;;;;;14.60;79.50;;;;;;5075778;28;19915;-50
2023/03/02 03:20:07;;;;;;;;;;;14.60;79.60;;;;;;5075707;28;19995;-48
2023/03/02 03:22:34;;;;;;;;;;;14.50;79.60;;;;;;5075530;28;19913;-49
2023/03/02 03:24:59;;;;;;;;;;;14.50;79.70;;;;;;5075357;28;19913;-48
2023/03/02 03:27:25;;;;;;;;;;;14.50;79.70;;;;;;5075633;28;19977;-50
2023/03/02 03:29:51;;;;;;;;;;;14.50;79.80;;;;;;5075268;28;19923;-46
2023/03/02 03:32:16;;;;;;;;;;;14.50;79.90;;;;;;5075570;28;19908;-49
2023/03/02 03:34:42;;;;;;;;;;;14.50;79.90;;;;;;5075177;28;19908;-48
2023/03/02 03:37:09;;;;;;;;;;;14.50;79.90;;;;;;5057460;28;20351;-46
2023/03/02 03:39:34;;;;;;;;;;;14.50;79.80;;;;;;5075499;28;19966;-50
2023/03/02 03:42:00;;;;;;;;;;;14.60;79.70;;;;;;5075217;28;19916;-50
2023/03/02 03:44:25;;;;;;;;;;;14.60;79.60;;;;;;5075186;28;19913;-50
2023/03/02 03:46:51;;;;;;;;;;;14.60;79.50;;;;;;5074852;28;19912;-46
2023/03/02 03:49:16;;;;;;;;;;;14.60;79.40;;;;;;5074704;28;19944;-46
2023/03/02 03:51:42;;;;;;;;;;;14.70;79.50;;;;;;5074827;28;19908;-47
2023/03/02 03:54:08;;;;;;;;;;;14.70;79.30;;;;;;5074752;28;19908;-47
2023/03/02 03:56:35;;;;;;;;;;;14.70;79.30;;;;;;5057067;28;19909;-46
2023/03/02 03:59:05;;;;;;;;;;;14.70;79.40;;;;;;5074768;28;20248;-48
2023/03/02 04:01:51;;;;;;;;;;;14.70;79.40;;;;;;5074844;28;19919;-48
2023/03/02 04:04:19;;;;;;;;;;;14.60;79.50;;;;;;5075073;28;19912;-51
2023/03/02 04:06:45;;;;;;;;;;;14.70;79.60;;;;;;5074382;28;20352;-50
2023/03/02 04:09:11;;;;;;;;;;;14.60;79.60;;;;;;5074731;28;19909;-49
2023/03/02 04:11:38;;;;;;;;;;;14.60;79.70;;;;;;5074397;28;19909;-52
2023/03/02 04:14:04;;;;;;;;;;;14.60;79.80;;;;;;5074806;28;19935;-51
2023/03/02 04:16:29;;;;;;;;;;;14.50;79.80;;;;;;5074355;28;19915;-50
2023/03/02 04:18:55;;;;;;;;;;;14.50;79.90;;;;;;5074545;28;19909;-48
2023/03/02 04:21:21;;;;;;;;;;;14.60;80.00;;;;;;5074754;28;19982;-52
2023/03/02 04:23:47;;;;;;;;;;;14.50;80.00;;;;;;5074215;28;19916;-50
2023/03/02 04:26:12;;;;;;;;;;;14.60;80.00;;;;;;5074651;28;19982;-49
2023/03/02 04:28:38;;;;;;;;;;;14.50;80.00;;;;;;5074445;28;19919;-51
2023/03/02 04:31:03;;;;;;;;;;;14.60;80.10;;;;;;5074122;28;20003;-48
2023/03/02 04:33:29;;;;;;;;;;;14.50;80.10;;;;;;5074393;28;19908;-51
2023/03/02 04:35:54;;;;;;;;;;;14.60;80.10;;;;;;5074335;28;19912;-49
2023/03/02 04:38:20;;;;;;;;;;;14.60;80.10;;;;;;5073920;28;19908;-50
2023/03/02 04:40:46;;;;;;;;;;;14.60;80.10;;;;;;5073848;28;19921;-50
2023/03/02 04:43:11;;;;;;;;;;;14.70;79.90;;;;;;5074301;28;19918;-47
2023/03/02 04:45:37;;;;;;;;;;;14.70;79.70;;;;;;5055825;28;19913;-46
2023/03/02 04:48:03;;;;;;;;;;;14.70;79.60;;;;;;5074089;28;19909;-47
2023/03/02 04:50:29;;;;;;;;;;;14.70;79.50;;;;;;5074154;28;19908;-47
2023/03/02 04:52:55;;;;;;;;;;;14.70;79.50;;;;;;5056049;28;19974;-51
2023/03/02 04:55:23;;;;;;;;;;;14.70;79.50;;;;;;5074084;28;20007;-52
2023/03/02 04:57:48;;;;;;;;;;;14.70;79.60;;;;;;5073791;28;20007;-48
2023/03/02 05:00:15;;;;;;;;;;;14.70;79.60;;;;;;5073734;28;20000;-50
2023/03/02 05:02:41;;;;;;;;;;;14.70;79.70;;;;;;5073825;28;19919;-48
2023/03/02 05:05:06;;;;;;;;;;;14.70;79.80;;;;;;5073737;28;19913;-46
2023/03/02 05:07:32;;;;;;;;;;;14.70;79.80;;;;;;5055876;28;19908;-49
2023/03/02 05:09:57;;;;;;;;;;;14.60;79.80;;;;;;5073601;28;19913;-48
2023/03/02 05:12:23;;;;;;;;;;;14.60;80.50;;;;;;5073510;28;19908;-52
2023/03/02 05:14:48;;;;;;;;;;;14.60;80.00;;;;;;5073411;28;19922;-50
2023/03/02 05:17:14;;;;;;;;;;;14.60;80.10;;;;;;5073665;28;19931;-48
2023/03/02 05:19:40;;;;;;;;;;;14.60;80.10;;;;;;5073511;28;20279;-48
2023/03/02 05:22:05;;;;;;;;;;;14.60;80.10;;;;;;5073382;28;20387;-48
2023/03/02 05:24:31;;;;;;;;;;;14.70;80.10;;;;;;5073721;28;19912;-47
2023/03/02 05:26:56;;;;;;;;;;;14.70;80.10;;;;;;5073595;28;19908;-51
2023/03/02 05:29:22;;;;;;;;;;;14.70;79.90;;;;;;5073670;28;20366;-49
2023/03/02 05:31:47;;;;;;;;;;;14.80;79.90;;;;;;5055607;28;19919;-46
2023/03/02 05:34:15;;;;;;;;;;;14.80;79.70;;;;;;5073630;28;19913;-50
2023/03/02 05:36:40;;;;;;;;;;;14.80;79.60;;;;;;5073561;28;19908;-45
2023/03/02 05:39:06;;;;;;;;;;;14.90;79.60;;;;;;5073246;28;20314;-49
2023/03/02 05:41:32;;;;;;;;;;;14.80;79.50;;;;;;5055498;28;20363;-51
2023/03/02 05:43:58;;;;;;;;;;;14.80;79.60;;;;;;5073242;28;19939;-48
2023/03/02 05:46:24;;;;;;;;;;;14.80;79.60;;;;;;5073069;28;19962;-50
2023/03/02 05:48:49;;;;;;;;;;;14.80;79.70;;;;;;5073246;28;19908;-45
2023/03/02 05:51:15;;;;;;;;;;;14.80;79.80;;;;;;5073393;28;19915;-50
2023/03/02 05:53:40;;;;;;;;;;;14.80;79.90;;;;;;5072888;28;19909;-45
2023/03/02 05:56:06;;;;;;;;;;;14.80;79.90;;;;;;5057337;28;19917;-48
2023/03/02 05:58:31;;;;;;;;;;;14.70;79.90;;;;;;5077034;28;19908;-47
2023/03/02 06:00:57;;;;;;;;;;;14.70;80.00;;;;;;5058825;28;19913;-47
2023/03/02 06:03:22;;;;;;;;;;;14.70;80.10;;;;;;5076862;28;20355;-46
2023/03/02 06:05:49;;;;;;;;;;;14.70;80.00;;;;;;5076573;28;19908;-49
2023/03/02 06:08:18;;;;;;;;;;;14.60;80.20;;;;;;5076701;28;19954;-48
2023/03/02 06:10:44;;;;;;;;;;;14.60;80.20;;;;;;5074016;28;20412;-47
2023/03/02 06:13:10;;;;;;;;;;;14.60;80.10;;;;;;5076239;28;19948;-49
2023/03/02 06:15:35;;;;;;;;;;;14.60;80.20;;;;;;5077612;28;19935;-50
2023/03/02 06:18:01;;;;;;;;;;;14.60;80.80;;;;;;5055076;28;19908;-50
2023/03/02 06:20:26;;;;;;;;;;;14.60;80.40;;;;;;5074640;28;19978;-51
2023/03/02 06:22:52;;;;;;;;;;;14.70;80.80;;;;;;5073475;28;19966;-59
2023/03/02 06:25:19;;;;;;;;;;;14.90;80.60;;;;;;5075987;28;20007;-58
2023/03/02 06:27:45;;;;;;;;;;;15.20;79.80;;;;;;5057785;28;20251;-56
2023/03/02 06:30:14;;;;;;;;;;;15.70;78.80;;;;;;5095716;28;19914;-54
2023/03/02 06:32:40;;;;;;;;;;;16.20;77.90;;;;;;5066916;28;19912;-54
2023/03/02 06:35:06;;;;;;;;;;;16.60;76.80;;;;;;5073530;28;19912;-56
2023/03/02 06:37:32;;;;;;;;;;;16.90;76.10;;;;;;5072937;28;19948;-62
2023/03/02 06:39:58;;;;;;;;;;;17.10;75.30;;;;;;5061426;28;19970;-44
2023/03/02 06:42:24;;;;;;;;;;;17.30;74.90;;;;;;5090667;28;19915;-51
2023/03/02 06:44:50;;;;;;;;;;;17.40;74.80;;;;;;5083763;28;19913;-51
2023/03/02 06:47:16;;;;;;;;;;;17.50;74.70;;;;;;5075652;28;20243;-46
2023/03/02 06:49:42;;;;;;;;;;;17.50;74.50;;;;;;5075074;28;19995;-48
2023/03/02 06:52:09;;;;;;;;;;;17.50;74.50;;;;;;5071949;28;20458;-50
2023/03/02 06:54:35;;;;;;;;;;;17.50;74.50;;;;;;5074594;28;19908;-47
2023/03/02 06:57:01;;;;;;;;;;;17.40;74.60;;;;;;5075756;28;19905;-47
2023/03/02 06:59:26;;;;;;;;;;;17.50;74.50;;;;;;5084570;28;20014;-52
2023/03/02 07:01:52;;;;;;;;;;;17.50;74.60;;;;;;5074046;28;19916;-50
2023/03/02 07:04:17;;;;;;;;;;;17.50;74.60;;;;;;5074029;28;20282;-47
2023/03/02 07:06:43;;;;;;;;;;;17.60;74.60;;;;;;5072460;28;19916;-49
2023/03/02 07:09:08;;;;;;;;;;;17.60;74.60;;;;;;5072453;28;19978;-48
2023/03/02 07:11:34;;;;;;;;;;;17.60;74.40;;;;;;5073958;28;19923;-50
2023/03/02 07:14:00;;;;;;;;;;;17.60;75.10;;;;;;5057702;28;19908;-51
2023/03/02 07:16:25;;;;;;;;;;;17.70;74.60;;;;;;5072773;28;20367;-52
2023/03/02 07:18:51;;;;;;;;;;;17.70;74.20;;;;;;5074061;28;19915;-49
2023/03/02 07:21:16;;;;;;;;;;;17.90;74.20;;;;;;5073021;28;19934;-51
2023/03/02 07:23:42;;;;;;;;;;;18.10;73.90;;;;;;5071465;28;19912;-52
2023/03/02 07:26:07;;;;;;;;;;;18.20;73.70;;;;;;5058656;28;19919;-52
2023/03/02 07:28:38;;;;;;;;;;;18.20;73.30;;;;;;5072923;28;19916;-52
2023/03/02 07:31:04;;;;;;;;;;;18.20;73.50;;;;;;5072818;28;20266;-50
2023/03/02 07:33:29;;;;;;;;;;;18.20;73.50;;;;;;5087294;28;19908;-52
2023/03/02 07:35:54;;;;;;;;;;;18.20;73.50;;;;;;5083809;28;19915;-52
2023/03/02 07:38:20;;;;;;;;;;;18.10;73.70;;;;;;5072700;28;19961;-54
2023/03/02 07:40:45;;;;;;;;;;;18.10;73.90;;;;;;5072723;28;19916;-51
2023/03/02 07:43:11;;;;;;;;;;;18.00;74.00;;;;;;5072418;28;20114;-49
2023/03/02 07:45:37;;;;;;;;;;;18.00;74.20;;;;;;5071348;28;19928;-51
2023/03/02 07:48:02;;;;;;;;;;;18.10;74.10;;;;;;5074086;28;19912;-50
2023/03/02 07:50:28;;;;;;;;;;;18.00;74.10;;;;;;5073259;28;19908;-49
2023/03/02 07:52:53;;;;;;;;;;;18.10;74.00;;;;;;5054123;28;19920;-49
2023/03/02 07:55:19;;;;;;;;;;;18.10;73.50;;;;;;5066137;28;20010;-48
2023/03/02 07:57:44;;;;;;;;;;;18.20;73.70;;;;;;5074474;28;19909;-48
2023/03/02 08:00:10;;;;;;;;;;;18.30;73.50;;;;;;5076281;28;19947;-50
2023/03/02 08:02:36;;;;;;;;;;;18.40;73.40;;;;;;5056779;28;19912;-52
2023/03/02 08:05:01;;;;;;;;;;;18.40;73.30;;;;;;5074344;28;20412;-50
2023/03/02 08:07:27;;;;;;;;;;;18.50;73.20;;;;;;5074260;28;19912;-49
2023/03/02 08:09:52;;;;;;;;;;;18.50;73.20;;;;;;5074443;28;19909;-48
2023/03/02 08:12:17;;;;;;;;;;;18.50;73.10;;;;;;5074175;28;19969;-49
2023/03/02 08:14:43;;;;;;;;;;;18.60;73.20;;;;;;5074133;28;19909;-47
2023/03/02 08:17:08;;;;;;;;;;;18.50;73.20;;;;;;5061555;28;19916;-47
2023/03/02 08:19:34;;;;;;;;;;;18.50;73.20;;;;;;5093544;28;19922;-49
2023/03/02 08:22:00;;;;;;;;;;;18.50;73.30;;;;;;5094558;28;19963;-50
2023/03/02 08:24:25;;;;;;;;;;;18.50;73.40;;;;;;5086479;28;19917;-46
2023/03/02 08:26:51;;;;;;;;;;;18.50;73.50;;;;;;5073932;28;19927;-49
2023/03/02 08:29:16;;;;;;;;;;;18.50;73.60;;;;;;5073923;28;19924;-46
2023/03/02 08:31:42;;;;;;;;;;;18.50;73.60;;;;;;5077282;28;19965;-49
2023/03/02 08:34:07;;;;;;;;;;;18.50;73.70;;;;;;5075600;28;20007;-49
2023/03/02 08:36:33;;;;;;;;;;;18.50;73.60;;;;;;5074476;28;19931;-48
2023/03/02 08:38:58;;;;;;;;;;;18.60;73.50;;;;;;5073603;28;19952;-51
2023/03/02 08:41:24;;;;;;;;;;;18.60;73.40;;;;;;5073818;28;19964;-49
2023/03/02 08:43:53;;;;;;;;;;;18.60;73.40;;;;;;5076759;28;19923;-49
2023/03/02 08:46:18;;;;;;;;;;;18.70;73.30;;;;;;5068141;28;19912;-49
2023/03/02 08:48:44;;;;;;;;;;;18.70;73.30;;;;;;5073579;28;19908;-49
2023/03/02 08:51:14;;;;;;;;;;;18.70;73.70;;;;;;5073766;28;20354;-47
2023/03/02 08:53:41;;;;;;;;;;;18.70;73.30;;;;;;5073856;28;19931;-52
2023/03/02 08:56:20;;;;;;;;;;;18.70;73.80;;;;;;5073898;28;20351;-47
2023/03/02 08:58:46;;;;;;;;;;;18.80;73.40;;;;;;5074025;28;19909;-48
2023/03/02 09:01:16;;;;;;;;;;;18.70;73.30;;;;;;5087189;28;19919;-53
2023/03/02 09:03:41;;;;;;;;;;;18.70;73.40;;;;;;5082103;28;20018;-50
2023/03/02 09:06:07;;;;;;;;;;;18.70;73.50;;;;;;5055799;28;19994;-50
2023/03/02 09:08:32;;;;;;;;;;;18.60;73.50;;;;;;5073733;28;19948;-48
2023/03/02 09:10:58;;;;;;;;;;;18.60;73.70;;;;;;5073453;28;19916;-50
2023/03/02 09:13:23;;;;;;;;;;;18.60;73.70;;;;;;5076162;28;19912;-52
2023/03/02 09:15:49;;;;;;;;;;;18.60;73.60;;;;;;5093974;28;19915;-54
2023/03/02 09:18:14;;;;;;;;;;;18.70;73.70;;;;;;5075827;28;19908;-47
2023/03/02 09:20:39;;;;;;;;;;;18.80;73.40;;;;;;5081895;28;20349;-53
2023/03/02 09:23:05;;;;;;;;;;;18.80;73.50;;;;;;5073546;28;19966;-49
2023/03/02 09:25:31;;;;;;;;;;;18.90;73.30;;;;;;5073967;28;19963;-50
2023/03/02 09:27:56;;;;;;;;;;;18.90;73.30;;;;;;5082629;28;19919;-52
2023/03/02 09:30:22;;;;;;;;;;;18.80;73.20;;;;;;5094801;28;19908;-51
2023/03/02 09:32:47;;;;;;;;;;;18.80;73.60;;;;;;5071587;28;19947;-52
2023/03/02 09:35:13;;;;;;;;;;;18.70;73.80;;;;;;5087020;28;19919;-52
2023/03/02 09:37:38;;;;;;;;;;;18.60;73.90;;;;;;5086338;28;19908;-52
2023/03/02 09:40:05;;;;;;;;;;;18.60;73.90;;;;;;5084684;28;19920;-48
2023/03/02 09:42:46;;;;;;;;;;;18.70;73.90;;;;;;5097798;28;19955;-49
2023/03/02 09:45:14;;;;;;;;;;;18.70;73.90;;;;;;5096938;28;20002;-48
2023/03/02 09:47:45;;;;;;;;;;;18.80;73.70;;;;;;5057078;28;19909;-48
2023/03/02 09:50:30;;;;;;;;;;;18.90;73.70;;;;;;5075976;28;19943;-50
2023/03/02 09:53:14;;;;;;;;;;;18.80;73.50;;;;;;5081741;28;19912;-48
2023/03/02 09:55:40;;;;;;;;;;;18.70;73.90;;;;;;5059610;28;19908;-46
2023/03/02 09:58:10;;;;;;;;;;;18.50;74.30;;;;;;5077193;28;20003;-49
2023/03/02 10:00:41;;;;;;;;;;;18.30;74.80;;;;;;5076921;28;20349;-47
2023/03/02 10:03:10;;;;;;;;;;;18.10;75.40;;;;;;5090207;28;20389;-48
2023/03/02 10:05:38;;;;;;;;;;;18.00;75.70;;;;;;5096938;28;19996;-47
2023/03/02 10:08:04;;;;;;;;;;;18.00;75.80;;;;;;5083599;28;19957;-49
2023/03/02 10:10:38;;;;;;;;;;;18.10;75.40;;;;;;5065082;28;19991;-51
2023/03/02 10:13:23;;;;;;;;;;;18.20;75.30;;;;;;5063583;28;20054;-49
2023/03/02 10:15:48;;;;;;;;;;;18.40;74.90;;;;;;5076632;28;19912;-47
2023/03/02 10:18:28;;;;;;;;;;;18.60;74.40;;;;;;5076381;28;19934;-48
2023/03/02 10:21:14;;;;;;;;;;;18.70;74.30;;;;;;5064774;28;19959;-51
2023/03/02 10:23:39;;;;;;;;;;;18.70;73.90;;;;;;5076279;28;20023;-50
2023/03/02 10:26:05;;;;;;;;;;;18.80;73.80;;;;;;5086582;28;19975;-49
2023/03/02 10:28:37;;;;;;;;;;;18.80;73.90;;;;;;5086415;28;19989;-48
2023/03/02 10:31:15;;;;;;;;;;;18.80;73.90;;;;;;5058521;28;19957;-49
2023/03/02 10:33:41;;;;;;;;;;;18.80;74.00;;;;;;5065838;28;19912;-49
2023/03/02 10:36:16;;;;;;;;;;;18.80;73.90;;;;;;5076067;28;19916;-50
2023/03/02 10:38:42;;;;;;;;;;;18.70;74.00;;;;;;5062277;28;19912;-49
2023/03/02 10:41:13;;;;;;;;;;;18.80;74.20;;;;;;5096058;28;19912;-52
2023/03/02 10:43:44;;;;;;;;;;;18.80;74.10;;;;;;5095842;28;19923;-49
2023/03/02 10:46:11;;;;;;;;;;;18.70;74.10;;;;;;5078085;28;19915;-52
2023/03/02 10:48:53;;;;;;;;;;;18.80;74.00;;;;;;5076073;28;19919;-49
2023/03/02 10:51:20;;;;;;;;;;;18.80;74.10;;;;;;5075661;28;19909;-49
2023/03/02 10:53:46;;;;;;;;;;;18.90;74.10;;;;;;5075830;28;19962;-52
2023/03/02 10:56:20;;;;;;;;;;;19.00;73.70;;;;;;5075894;28;19908;-54
2023/03/02 10:58:46;;;;;;;;;;;19.00;73.80;;;;;;5094807;28;19991;-50
2023/03/02 11:01:15;;;;;;;;;;;19.10;73.70;;;;;;5095781;28;20361;-51
2023/03/02 11:03:40;;;;;;;;;;;19.10;73.80;;;;;;5076427;28;19917;-47
2023/03/02 11:06:10;;;;;;;;;;;19.10;73.70;;;;;;5075881;28;19956;-51
2023/03/02 11:08:36;;;;;;;;;;;19.20;73.70;;;;;;5079350;28;20287;-52
2023/03/02 11:11:03;;;;;;;;;;;19.20;73.60;;;;;;5095887;28;19912;-48
2023/03/02 11:13:29;;;;;;;;;;;19.20;73.70;;;;;;5092055;28;19963;-51
2023/03/02 11:15:58;;;;;;;;;;;19.20;73.60;;;;;;5075882;28;20379;-52
2023/03/02 11:18:23;;;;;;;;;;;19.20;73.60;;;;;;5075181;28;20000;-54
2023/03/02 11:20:51;;;;;;;;;;;19.20;74.30;;;;;;5075785;28;19957;-50
2023/03/02 11:23:40;;;;;;;;;;;19.10;74.00;;;;;;5095631;28;19916;-50
2023/03/02 11:26:14;;;;;;;;;;;19.10;74.10;;;;;;5068796;28;20378;-51
2023/03/02 11:28:40;;;;;;;;;;;19.00;73.90;;;;;;5070951;28;20007;-51
2023/03/02 11:31:10;;;;;;;;;;;19.10;74.00;;;;;;5068893;28;20376;-51
2023/03/02 11:33:41;;;;;;;;;;;19.10;73.80;;;;;;5074110;28;19913;-53
2023/03/02 11:36:11;;;;;;;;;;;19.20;73.80;;;;;;5069135;28;19909;-48
2023/03/02 11:38:42;;;;;;;;;;;19.20;73.80;;;;;;5065393;28;19912;-50
2023/03/02 11:41:11;;;;;;;;;;;19.20;73.70;;;;;;5070580;28;19932;-48
2023/03/02 11:43:36;;;;;;;;;;;19.10;73.80;;;;;;5073516;28;19916;-46
2023/03/02 11:46:04;;;;;;;;;;;19.10;73.80;;;;;;5074012;28;19994;-46
2023/03/02 11:48:35;;;;;;;;;;;19.00;73.70;;;;;;5074226;28;19909;-47
2023/03/02 11:51:05;;;;;;;;;;;19.00;73.90;;;;;;5055492;28;19913;-45
2023/03/02 11:53:42;;;;;;;;;;;19.00;74.00;;;;;;5072939;28;19956;-46
2023/03/02 11:56:08;;;;;;;;;;;19.00;74.00;;;;;;5070575;28;19917;-48
2023/03/02 11:58:34;;;;;;;;;;;19.00;74.10;;;;;;5071136;28;19927;-47
2023/03/02 12:01:00;;;;;;;;;;;19.00;74.00;;;;;;5074570;28;19967;-45
2023/03/02 12:03:29;;;;;;;;;;;19.00;74.10;;;;;;5074068;28;19917;-49
2023/03/02 12:06:00;;;;;;;;;;;19.10;73.90;;;;;;5073530;28;19908;-50
2023/03/02 12:08:39;;;;;;;;;;;19.10;73.70;;;;;;5074188;28;19991;-49
2023/03/02 12:11:07;;;;;;;;;;;19.10;73.70;;;;;;5064534;28;19928;-45
2023/03/02 12:13:34;;;;;;;;;;;19.10;73.70;;;;;;5073848;28;19916;-48
2023/03/02 12:15:59;;;;;;;;;;;19.10;73.70;;;;;;5071843;28;19966;-46
2023/03/02 12:18:29;;;;;;;;;;;19.10;73.70;;;;;;5071060;28;19916;-47
2023/03/02 12:20:58;;;;;;;;;;;19.00;73.90;;;;;;5072155;28;19939;-49
2023/03/02 12:23:24;;;;;;;;;;;19.00;73.90;;;;;;5069377;28;19920;-55
2023/03/02 12:26:00;;;;;;;;;;;19.10;73.90;;;;;;5068224;28;20405;-49
2023/03/02 12:28:27;;;;;;;;;;;19.10;73.70;;;;;;5057114;28;20334;-48
2023/03/02 12:31:01;;;;;;;;;;;18.90;74.20;;;;;;5072755;28;19916;-53
2023/03/02 12:33:27;;;;;;;;;;;18.70;74.50;;;;;;5087531;28;19954;-49
2023/03/02 12:36:01;;;;;;;;;;;18.50;75.00;;;;;;5094208;28;19904;-53
2023/03/02 12:38:29;;;;;;;;;;;18.40;75.50;;;;;;5094345;28;19904;-48
2023/03/02 12:41:05;;;;;;;;;;;18.30;75.90;;;;;;5093930;28;19916;-49
2023/03/02 12:43:34;;;;;;;;;;;18.30;76.00;;;;;;5089638;28;19920;-51
2023/03/02 12:46:18;;;;;;;;;;;18.40;75.90;;;;;;5073724;28;19904;-49
2023/03/02 12:48:47;;;;;;;;;;;18.50;75.80;;;;;;5073823;28;19923;-48
2023/03/02 12:51:23;;;;;;;;;;;18.60;75.30;;;;;;5055691;28;19912;-51
2023/03/02 12:53:49;;;;;;;;;;;18.70;75.20;;;;;;5074062;28;19904;-54
2023/03/02 12:56:24;;;;;;;;;;;18.80;75.00;;;;;;5073815;28;19963;-55
2023/03/02 12:58:50;;;;;;;;;;;18.90;75.00;;;;;;5073516;28;19905;-49
2023/03/02 13:01:20;;;;;;;;;;;19.00;74.80;;;;;;5055648;28;20339;-48
2023/03/02 13:03:46;;;;;;;;;;;19.10;74.70;;;;;;5073613;28;19908;-55
2023/03/02 13:06:13;;;;;;;;;;;19.10;74.60;;;;;;5073475;28;19963;-51
2023/03/02 13:08:41;;;;;;;;;;;19.10;74.50;;;;;;5073554;28;19904;-51
2023/03/02 13:11:06;;;;;;;;;;;19.10;74.60;;;;;;5073597;28;20339;-48
2023/03/02 13:13:42;;;;;;;;;;;19.10;74.60;;;;;;5073695;28;20067;-52
2023/03/02 13:16:19;;;;;;;;;;;19.10;74.70;;;;;;5073659;28;19919;-60
2023/03/02 13:18:45;;;;;;;;;;;19.10;74.70;;;;;;5073347;28;19928;-60
2023/03/02 13:21:12;;;;;;;;;;;19.20;74.60;;;;;;5041991;28;20003;-63
2023/03/02 13:23:43;;;;;;;;;;;19.30;74.40;;;;;;5053308;28;19916;-57
2023/03/02 13:26:22;;;;;;;;;;;19.40;74.10;;;;;;5053404;28;19915;-59
2023/03/02 13:28:58;;;;;;;;;;;19.50;74.10;;;;;;5053485;28;19913;-62
2023/03/02 13:31:24;;;;;;;;;;;19.50;73.90;;;;;;5053300;28;19905;-55
2023/03/02 13:33:51;;;;;;;;;;;19.50;74.00;;;;;;5086074;28;20258;-57
2023/03/02 13:36:21;;;;;;;;;;;19.40;74.10;;;;;;5059022;28;19910;-62
2023/03/02 13:38:48;;;;;;;;;;;19.30;74.50;;;;;;5073123;28;19912;-57
2023/03/02 13:41:20;;;;;;;;;;;19.10;74.80;;;;;;5073832;28;19961;-59
2023/03/02 13:43:45;;;;;;;;;;;19.00;75.20;;;;;;5055421;28;20353;-59
2023/03/02 13:46:14;;;;;;;;;;;18.90;75.50;;;;;;5055397;28;19904;-58
2023/03/02 13:48:39;;;;;;;;;;;19.00;75.40;;;;;;5073375;28;19905;-60
2023/03/02 13:51:16;;;;;;;;;;;19.10;75.30;;;;;;5073337;28;19911;-53
2023/03/02 13:53:44;;;;;;;;;;;19.30;75.00;;;;;;5073446;28;20336;-55
2023/03/02 13:56:11;;;;;;;;;;;19.40;74.70;;;;;;5073311;28;19905;-55
2023/03/02 13:58:38;;;;;;;;;;;19.50;74.40;;;;;;5073690;28;19911;-56
2023/03/02 14:01:04;;;;;;;;;;;19.40;74.40;;;;;;5073189;28;19905;-58
2023/03/02 14:03:30;;;;;;;;;;;19.30;74.80;;;;;;5073219;28;19979;-54
2023/03/02 14:05:56;;;;;;;;;;;19.20;75.00;;;;;;5072540;28;19954;-54
2023/03/02 14:08:22;;;;;;;;;;;19.00;75.30;;;;;;5073305;28;19944;-55
2023/03/02 14:10:49;;;;;;;;;;;18.80;75.80;;;;;;5072572;28;19948;-52
2023/03/02 14:13:17;;;;;;;;;;;18.70;76.10;;;;;;5073077;28;19904;-53
2023/03/02 14:15:46;;;;;;;;;;;18.60;76.10;;;;;;5073332;28;19905;-58
2023/03/02 14:18:30;;;;;;;;;;;18.70;76.30;;;;;;5057658;28;20386;-60